PWSweather.com
Personal Weather Stations
Station Observations
01979
Ravne Pri CerknemSI 5282

Ravne Pri CerknemSI 5282

Lat: 46.1213916, Lon: 13.952774299999987

Elevation: 2244.094488

Station Type: Techo Line WS2307

www.vremenska.postaja.andre.si/

High Low Average
Temperature 34.7°F1.5°C 22.8°F-5.1°C 28.6°F-1.9°C
Dew Point 23.2°F-4.9°C 19.6°F-6.9°C 21.1°F-6.1°C
Winds 11.9 mph 19.2 kmh Calm Calm 3.0 mph E4.8 kmh E
Wind Gusts 25.1 mph40.4 kmh -- 7.0 mph11.3 kmh
Humidity 89% 59% 74%
Pressure 29.96 in1014.6 mb 29.89 in1012.2 mb -
Precipitation 0.02 in0.5 mm - -
Hour Temp Dew Point Humidity Winds Wind Gusts Pressure Precip Precip Rate Daily Precip Total
12:00 AM 28.9°F-1.7°C 23.2°F-4.9°C 79% 7.5 mph SE12.1 kmh SE 10.3 mph16.6 kmh 29.93 in1013.5 mb 0.00 in0.0 mm 0.00 in0.0 mm 0.00 in0.0 mm
12:10 AM 29.1°F-1.6°C 23.1°F-4.9°C 78% 7.3 mph SE11.7 kmh SE 10.3 mph16.6 kmh 29.93 in1013.5 mb 0.00 in0.0 mm 0.00 in0.0 mm 0.00 in0.0 mm
12:20 AM 28.9°F-1.7°C 22.9°F-5.1°C 78% 9.8 mph SE15.8 kmh SE 15.0 mph24.1 kmh 29.94 in1013.9 mb 0.00 in0.0 mm 0.00 in0.0 mm 0.00 in0.0 mm
12:30 AM 28.9°F-1.7°C 22.9°F-5.1°C 78% 7.0 mph SE11.3 kmh SE 12.5 mph20.1 kmh 29.94 in1013.9 mb 0.00 in0.0 mm 0.00 in0.0 mm 0.00 in0.0 mm
12:40 AM 28.8°F-1.8°C 22.8°F-5.1°C 78% 9.0 mph ESE14.5 kmh ESE 12.8 mph20.6 kmh 29.94 in1013.9 mb 0.00 in0.0 mm 0.00 in0.0 mm 0.00 in0.0 mm
12:50 AM 28.6°F-1.9°C 22.9°F-5.1°C 79% 7.5 mph ENE12.1 kmh ENE 17.4 mph28.0 kmh 29.94 in1013.9 mb 0.00 in0.0 mm 0.00 in0.0 mm 0.00 in0.0 mm
01:00 AM 28.8°F-1.8°C 22.8°F-5.1°C 78% 5.7 mph SE9.2 kmh SE 17.4 mph28.0 kmh 29.95 in1014.2 mb 0.00 in0.0 mm 0.00 in0.0 mm 0.00 in0.0 mm
01:10 AM 28.8°F-1.8°C 22.8°F-5.1°C 78% 6.2 mph ESE10.0 kmh ESE 12.5 mph20.1 kmh 29.95 in1014.2 mb 0.00 in0.0 mm 0.00 in0.0 mm 0.00 in0.0 mm
01:20 AM 28.6°F-1.9°C 22.6°F-5.2°C 78% 8.6 mph SE13.8 kmh SE 12.1 mph19.5 kmh 29.95 in1014.2 mb 0.00 in0.0 mm 0.00 in0.0 mm 0.00 in0.0 mm
01:30 AM 28.2°F-2.1°C 22.5°F-5.3°C 79% 2.3 mph S3.7 kmh S 12.1 mph19.5 kmh 29.95 in1014.2 mb 0.00 in0.0 mm 0.00 in0.0 mm 0.00 in0.0 mm
01:40 AM 28.0°F-2.2°C 22.7°F-5.2°C 80% 2.5 mph SE4.0 kmh SE 6.5 mph10.5 kmh 29.94 in1013.9 mb 0.00 in0.0 mm 0.00 in0.0 mm 0.00 in0.0 mm
01:50 AM 28.2°F-2.1°C 22.5°F-5.3°C 79% 7.2 mph E11.6 kmh E 11.0 mph17.7 kmh 29.95 in1014.2 mb 0.00 in0.0 mm 0.00 in0.0 mm 0.00 in0.0 mm
02:00 AM 28.0°F-2.2°C 22.4°F-5.3°C 79% 3.7 mph E6.0 kmh E 25.1 mph40.4 kmh 29.95 in1014.2 mb 0.00 in0.0 mm 0.00 in0.0 mm 0.00 in0.0 mm
02:02 AM 28.0°F-2.2°C 22.7°F-5.2°C 80% 5.3 mph E8.5 kmh E 6.0 mph9.7 kmh 29.94 in1013.9 mb 0.00 in0.0 mm 0.00 in0.0 mm 0.00 in0.0 mm
02:10 AM 28.2°F-2.1°C 22.2°F-5.4°C 78% 5.4 mph SE8.7 kmh SE 8.3 mph13.4 kmh 29.94 in1013.9 mb 0.00 in0.0 mm 0.00 in0.0 mm 0.00 in0.0 mm
02:20 AM 28.2°F-2.1°C 22.2°F-5.4°C 78% 4.1 mph E6.6 kmh E 4.7 mph7.6 kmh 29.94 in1013.9 mb 0.00 in0.0 mm 0.00 in0.0 mm 0.00 in0.0 mm
02:30 AM 28.2°F-2.1°C 22.2°F-5.4°C 78% 8.8 mph ESE14.2 kmh ESE 12.3 mph19.8 kmh 29.94 in1013.9 mb 0.00 in0.0 mm 0.00 in0.0 mm 0.00 in0.0 mm
02:40 AM 28.2°F-2.1°C 22.2°F-5.4°C 78% 5.7 mph ESE9.2 kmh ESE 15.0 mph24.1 kmh 29.94 in1013.9 mb 0.00 in0.0 mm 0.00 in0.0 mm 0.00 in0.0 mm
02:50 AM 28.2°F-2.1°C 22.2°F-5.4°C 78% 6.1 mph E9.8 kmh E 12.1 mph19.5 kmh 29.95 in1014.2 mb 0.00 in0.0 mm 0.00 in0.0 mm 0.00 in0.0 mm
03:00 AM 28.0°F-2.2°C 22.1°F-5.5°C 78% 5.4 mph SE8.7 kmh SE 8.1 mph13.0 kmh 29.95 in1014.2 mb 0.00 in0.0 mm 0.00 in0.0 mm 0.00 in0.0 mm
03:10 AM 27.9°F-2.3°C 21.9°F-5.6°C 78% 8.5 mph ESE13.7 kmh ESE 11.6 mph18.7 kmh 29.95 in1014.2 mb 0.00 in0.0 mm 0.00 in0.0 mm 0.00 in0.0 mm
03:20 AM 28.0°F-2.2°C 22.1°F-5.5°C 78% 11.9 mph E19.2 kmh E 15.4 mph24.8 kmh 29.94 in1013.9 mb 0.00 in0.0 mm 0.00 in0.0 mm 0.00 in0.0 mm
03:30 AM 28.2°F-2.1°C 21.6°F-5.8°C 76% 9.9 mph SE15.9 kmh SE 15.4 mph24.8 kmh 29.94 in1013.9 mb 0.00 in0.0 mm 0.00 in0.0 mm 0.00 in0.0 mm
03:40 AM 28.0°F-2.2°C 21.8°F-5.7°C 77% 2.8 mph E4.5 kmh E 6.5 mph10.5 kmh 29.93 in1013.5 mb 0.00 in0.0 mm 0.00 in0.0 mm 0.00 in0.0 mm
03:50 AM 28.2°F-2.1°C 21.6°F-5.8°C 76% 7.0 mph ESE11.3 kmh ESE 8.1 mph13.0 kmh 29.93 in1013.5 mb 0.00 in0.0 mm 0.00 in0.0 mm 0.00 in0.0 mm
04:00 AM 28.2°F-2.1°C 21.6°F-5.8°C 76% 5.0 mph SE8.0 kmh SE 13.4 mph21.6 kmh 29.93 in1013.5 mb 0.00 in0.0 mm 0.00 in0.0 mm 0.00 in0.0 mm
04:10 AM 28.2°F-2.1°C 21.3°F-5.9°C 75% 4.2 mph SE6.8 kmh SE 9.8 mph15.8 kmh 29.94 in1013.9 mb 0.00 in0.0 mm 0.00 in0.0 mm 0.00 in0.0 mm
04:20 AM 28.2°F-2.1°C 21.3°F-5.9°C 75% 3.7 mph ESE6.0 kmh ESE 12.3 mph19.8 kmh 29.93 in1013.5 mb 0.00 in0.0 mm 0.00 in0.0 mm 0.00 in0.0 mm
04:30 AM 28.6°F-1.9°C 21.3°F-5.9°C 74% 6.1 mph ESE9.8 kmh ESE 12.3 mph19.8 kmh 29.93 in1013.5 mb 0.00 in0.0 mm 0.00 in0.0 mm 0.00 in0.0 mm
04:40 AM 28.4°F-2.0°C 21.2°F-6.0°C 74% 6.0 mph ESE9.7 kmh ESE 9.4 mph15.1 kmh 29.93 in1013.5 mb 0.00 in0.0 mm 0.00 in0.0 mm 0.00 in0.0 mm
04:50 AM 28.4°F-2.0°C 21.2°F-6.0°C 74% 3.7 mph SE6.0 kmh SE 5.4 mph8.7 kmh 29.93 in1013.5 mb 0.00 in0.0 mm 0.00 in0.0 mm 0.00 in0.0 mm
05:00 AM 28.4°F-2.0°C 21.2°F-6.0°C 74% 5.5 mph ESE8.9 kmh ESE 8.1 mph13.0 kmh 29.93 in1013.5 mb 0.00 in0.0 mm 0.00 in0.0 mm 0.00 in0.0 mm
05:10 AM 28.6°F-1.9°C 21.0°F-6.1°C 73% 4.6 mph E7.4 kmh E 11.0 mph17.7 kmh 29.93 in1013.5 mb 0.00 in0.0 mm 0.00 in0.0 mm 0.00 in0.0 mm
05:20 AM 28.6°F-1.9°C 21.0°F-6.1°C 73% 2.6 mph SE4.2 kmh SE 4.3 mph6.9 kmh 29.94 in1013.9 mb 0.00 in0.0 mm 0.00 in0.0 mm 0.00 in0.0 mm
05:30 AM 28.6°F-1.9°C 20.7°F-6.3°C 72% 6.9 mph E11.1 kmh E 13.2 mph21.2 kmh 29.94 in1013.9 mb 0.00 in0.0 mm 0.00 in0.0 mm 0.00 in0.0 mm
05:40 AM 28.6°F-1.9°C 20.7°F-6.3°C 72% 8.3 mph ESE13.4 kmh ESE 13.2 mph21.2 kmh 29.93 in1013.5 mb 0.00 in0.0 mm 0.00 in0.0 mm 0.00 in0.0 mm
05:50 AM 28.6°F-1.9°C 20.7°F-6.3°C 72% 5.1 mph ESE8.2 kmh ESE 9.6 mph15.4 kmh 29.93 in1013.5 mb 0.00 in0.0 mm 0.00 in0.0 mm 0.00 in0.0 mm
06:00 AM 28.2°F-2.1°C 20.3°F-6.5°C 72% 9.3 mph E15.0 kmh E 10.1 mph16.3 kmh 29.93 in1013.5 mb 0.00 in0.0 mm 0.00 in0.0 mm 0.00 in0.0 mm
06:10 AM 28.2°F-2.1°C 20.3°F-6.5°C 72% 5.1 mph E8.2 kmh E 9.8 mph15.8 kmh 29.93 in1013.5 mb 0.00 in0.0 mm 0.00 in0.0 mm 0.00 in0.0 mm
06:20 AM 28.2°F-2.1°C 20.3°F-6.5°C 72% 1.5 mph SE2.4 kmh SE 3.4 mph5.5 kmh 29.93 in1013.5 mb 0.00 in0.0 mm 0.00 in0.0 mm 0.00 in0.0 mm
06:30 AM 28.2°F-2.1°C 20.0°F-6.7°C 71% 4.5 mph SE7.2 kmh SE 13.6 mph21.9 kmh 29.94 in1013.9 mb 0.00 in0.0 mm 0.00 in0.0 mm 0.00 in0.0 mm
06:40 AM 28.0°F-2.2°C 20.5°F-6.4°C 73% 5.6 mph ESE9.0 kmh ESE 9.2 mph14.8 kmh 29.94 in1013.9 mb 0.00 in0.0 mm 0.00 in0.0 mm 0.00 in0.0 mm
06:50 AM 27.7°F-2.4°C 20.2°F-6.6°C 73% 4.0 mph SE6.4 kmh SE 8.3 mph13.4 kmh 29.94 in1013.9 mb 0.00 in0.0 mm 0.00 in0.0 mm 0.00 in0.0 mm
07:00 AM 28.0°F-2.2°C 20.2°F-6.6°C 72% 4.7 mph ESE7.6 kmh ESE 8.1 mph13.0 kmh 29.94 in1013.9 mb 0.00 in0.0 mm 0.00 in0.0 mm 0.00 in0.0 mm
07:10 AM 27.7°F-2.4°C 20.2°F-6.6°C 73% 2.2 mph ESE3.5 kmh ESE 6.9 mph11.1 kmh 29.95 in1014.2 mb 0.00 in0.0 mm 0.00 in0.0 mm 0.00 in0.0 mm
07:20 AM 27.5°F-2.5°C 20.3°F-6.5°C 74% 1.6 mph E2.6 kmh E 4.7 mph7.6 kmh 29.95 in1014.2 mb 0.00 in0.0 mm 0.00 in0.0 mm 0.00 in0.0 mm
07:30 AM 27.7°F-2.4°C 20.2°F-6.6°C 73% 2.2 mph SE3.5 kmh SE 8.3 mph13.4 kmh 29.95 in1014.2 mb 0.00 in0.0 mm 0.00 in0.0 mm 0.00 in0.0 mm
07:40 AM 27.7°F-2.4°C 20.2°F-6.6°C 73% 4.5 mph SE7.2 kmh SE 7.2 mph11.6 kmh 29.95 in1014.2 mb 0.00 in0.0 mm 0.00 in0.0 mm 0.00 in0.0 mm
07:50 AM 28.0°F-2.2°C 20.2°F-6.6°C 72% 4.7 mph SE7.6 kmh SE 10.1 mph16.3 kmh 29.95 in1014.2 mb 0.00 in0.0 mm 0.00 in0.0 mm 0.00 in0.0 mm
08:00 AM 28.0°F-2.2°C 20.2°F-6.6°C 72% 6.9 mph SE11.1 kmh SE 10.1 mph16.3 kmh 29.94 in1013.9 mb 0.00 in0.0 mm 0.00 in0.0 mm 0.00 in0.0 mm
08:10 AM 28.0°F-2.2°C 20.5°F-6.4°C 73% 4.5 mph SE7.2 kmh SE 8.9 mph14.3 kmh 29.95 in1014.2 mb 0.00 in0.0 mm 0.00 in0.0 mm 0.00 in0.0 mm
08:20 AM 28.2°F-2.1°C 20.3°F-6.5°C 72% 0.3 mph ESE0.5 kmh ESE 8.9 mph14.3 kmh 29.95 in1014.2 mb 0.00 in0.0 mm 0.00 in0.0 mm 0.00 in0.0 mm
08:30 AM 28.2°F-2.1°C 20.3°F-6.5°C 72% 2.4 mph ESE3.9 kmh ESE 9.4 mph15.1 kmh 29.95 in1014.2 mb 0.00 in0.0 mm 0.00 in0.0 mm 0.00 in0.0 mm
08:40 AM 28.6°F-1.9°C 20.4°F-6.4°C 71% 4.3 mph SE6.9 kmh SE 9.4 mph15.1 kmh 29.95 in1014.2 mb 0.00 in0.0 mm 0.00 in0.0 mm 0.00 in0.0 mm
08:50 AM 29.1°F-1.6°C 20.9°F-6.2°C 71% 2.2 mph SE3.5 kmh SE 4.0 mph6.4 kmh 29.96 in1014.6 mb 0.00 in0.0 mm 0.00 in0.0 mm 0.00 in0.0 mm
09:00 AM 29.3°F-1.5°C 20.7°F-6.3°C 70% 3.9 mph SE6.3 kmh SE 9.6 mph15.4 kmh 29.96 in1014.6 mb 0.00 in0.0 mm 0.00 in0.0 mm 0.00 in0.0 mm
09:10 AM 29.5°F-1.4°C 20.6°F-6.3°C 69% 3.4 mph E5.5 kmh E 6.3 mph10.1 kmh 29.95 in1014.2 mb 0.00 in0.0 mm 0.00 in0.0 mm 0.00 in0.0 mm
09:20 AM 30.2°F-1.0°C 21.2°F-6.0°C 69% 3.4 mph E5.5 kmh E 6.5 mph10.5 kmh 29.96 in1014.6 mb 0.00 in0.0 mm 0.00 in0.0 mm 0.00 in0.0 mm
09:30 AM 30.0°F-1.1°C 21.1°F-6.1°C 69% 3.8 mph ESE6.1 kmh ESE 9.2 mph14.8 kmh 29.96 in1014.6 mb 0.00 in0.0 mm 0.00 in0.0 mm 0.00 in0.0 mm
09:40 AM 30.0°F-1.1°C 21.1°F-6.1°C 69% 6.2 mph E10.0 kmh E 9.2 mph14.8 kmh 29.96 in1014.6 mb 0.00 in0.0 mm 0.00 in0.0 mm 0.00 in0.0 mm
09:50 AM 30.4°F-0.9°C 21.4°F-5.9°C 69% 1.3 mph E2.1 kmh E 4.9 mph7.9 kmh 29.96 in1014.6 mb 0.00 in0.0 mm 0.00 in0.0 mm 0.00 in0.0 mm
10:00 AM 30.9°F-0.6°C 21.9°F-5.6°C 69% 2.5 mph ESE4.0 kmh ESE 6.3 mph10.1 kmh 29.95 in1014.2 mb 0.00 in0.0 mm 0.00 in0.0 mm 0.00 in0.0 mm
10:10 AM 30.7°F-0.7°C 21.4°F-5.9°C 68% 2.9 mph E4.7 kmh E 6.0 mph9.7 kmh 29.95 in1014.2 mb 0.00 in0.0 mm 0.00 in0.0 mm 0.00 in0.0 mm
10:20 AM 31.3°F-0.4°C 21.9°F-5.6°C 68% 1.6 mph ESE2.6 kmh ESE 5.8 mph9.3 kmh 29.96 in1014.6 mb 0.00 in0.0 mm 0.00 in0.0 mm 0.00 in0.0 mm
10:30 AM 30.6°F-0.8°C 21.2°F-6.0°C 68% 3.3 mph E5.3 kmh E 5.6 mph9.0 kmh 29.95 in1014.2 mb 0.00 in0.0 mm 0.00 in0.0 mm 0.00 in0.0 mm
10:40 AM 30.7°F-0.7°C 21.4°F-5.9°C 68% 1.7 mph E2.7 kmh E 5.6 mph9.0 kmh 29.95 in1014.2 mb 0.00 in0.0 mm 0.00 in0.0 mm 0.00 in0.0 mm
10:50 AM 30.7°F-0.7°C 21.4°F-5.9°C 68% 7.8 mph E12.6 kmh E 15.0 mph24.1 kmh 29.95 in1014.2 mb 0.00 in0.0 mm 0.00 in0.0 mm 0.00 in0.0 mm
11:00 AM 31.5°F-0.3°C 21.4°F-5.9°C 66% 2.0 mph E3.2 kmh E 7.6 mph12.2 kmh 29.95 in1014.2 mb 0.00 in0.0 mm 0.00 in0.0 mm 0.00 in0.0 mm
11:10 AM 31.3°F-0.4°C 21.2°F-6.0°C 66% 3.5 mph E5.6 kmh E 5.6 mph9.0 kmh 29.95 in1014.2 mb 0.00 in0.0 mm 0.00 in0.0 mm 0.00 in0.0 mm
11:20 AM 31.8°F-0.1°C 21.4°F-5.9°C 65% 1.7 mph E2.7 kmh E 4.3 mph6.9 kmh 29.95 in1014.2 mb 0.00 in0.0 mm 0.00 in0.0 mm 0.00 in0.0 mm
11:30 AM 32.7°F0.4°C 21.9°F-5.6°C 64% 1.0 mph NE1.6 kmh NE 2.5 mph4.0 kmh 29.95 in1014.2 mb 0.00 in0.0 mm 0.00 in0.0 mm 0.00 in0.0 mm
11:40 AM 33.1°F0.6°C 21.5°F-5.8°C 62% Calm Calm -- 29.95 in1014.2 mb 0.00 in0.0 mm 0.00 in0.0 mm 0.00 in0.0 mm
11:50 AM 33.4°F0.8°C 21.8°F-5.7°C 62% 1.4 mph E2.3 kmh E 8.1 mph13.0 kmh 29.94 in1013.9 mb 0.00 in0.0 mm 0.00 in0.0 mm 0.00 in0.0 mm
12:00 PM 33.6°F0.9°C 22.0°F-5.6°C 62% 3.0 mph ENE4.8 kmh ENE 8.1 mph13.0 kmh 29.94 in1013.9 mb 0.00 in0.0 mm 0.00 in0.0 mm 0.00 in0.0 mm
12:10 PM 34.7°F1.5°C 22.2°F-5.4°C 60% 1.3 mph SSE2.1 kmh SSE 5.6 mph9.0 kmh 29.93 in1013.5 mb 0.00 in0.0 mm 0.00 in0.0 mm 0.00 in0.0 mm
12:20 PM 34.3°F1.3°C 21.5°F-5.8°C 59% 3.1 mph ESE5.0 kmh ESE 11.9 mph19.2 kmh 29.93 in1013.5 mb 0.00 in0.0 mm 0.00 in0.0 mm 0.00 in0.0 mm
12:30 PM 33.6°F0.9°C 21.2°F-6.0°C 60% 1.9 mph NE3.1 kmh NE 7.4 mph11.9 kmh 29.93 in1013.5 mb 0.02 in0.5 mm 0.12 in3.0 mm 0.02 in0.5 mm
12:40 PM 33.1°F0.6°C 21.1°F-6.1°C 61% 5.8 mph ESE9.3 kmh ESE 9.4 mph15.1 kmh 29.93 in1013.5 mb 0.02 in0.5 mm 0.00 in0.0 mm 0.02 in0.5 mm
12:50 PM 32.5°F0.3°C 20.2°F-6.6°C 60% 10.3 mph E16.6 kmh E 18.8 mph30.3 kmh 29.92 in1013.2 mb 0.02 in0.5 mm 0.00 in0.0 mm 0.02 in0.5 mm
01:00 PM 33.1°F0.6°C 21.1°F-6.1°C 61% 5.2 mph SE8.4 kmh SE 9.2 mph14.8 kmh 29.92 in1013.2 mb 0.02 in0.5 mm 0.00 in0.0 mm 0.02 in0.5 mm
01:10 PM 32.5°F0.3°C 21.0°F-6.1°C 62% 5.6 mph ESE9.0 kmh ESE 10.1 mph16.3 kmh 29.92 in1013.2 mb 0.02 in0.5 mm 0.00 in0.0 mm 0.02 in0.5 mm
01:20 PM 32.2°F0.1°C 20.6°F-6.3°C 62% 3.5 mph SE5.6 kmh SE 7.8 mph12.6 kmh 29.92 in1013.2 mb 0.00 in0.0 mm 0.00 in0.0 mm 0.02 in0.5 mm
01:30 PM 32.2°F0.1°C 21.0°F-6.1°C 63% 3.7 mph E6.0 kmh E 8.5 mph13.7 kmh 29.91 in1012.9 mb 0.00 in0.0 mm 0.00 in0.0 mm 0.02 in0.5 mm
01:40 PM 32.5°F0.3°C 21.3°F-5.9°C 63% 4.2 mph SE6.8 kmh SE 7.6 mph12.2 kmh 29.91 in1012.9 mb 0.00 in0.0 mm 0.00 in0.0 mm 0.02 in0.5 mm
01:50 PM 32.2°F0.1°C 21.0°F-6.1°C 63% 4.1 mph E6.6 kmh E 8.1 mph13.0 kmh 29.91 in1012.9 mb 0.00 in0.0 mm 0.00 in0.0 mm 0.02 in0.5 mm
02:00 PM 32.2°F0.1°C 21.0°F-6.1°C 63% 5.8 mph E9.3 kmh E 10.5 mph16.9 kmh 29.91 in1012.9 mb 0.00 in0.0 mm 0.00 in0.0 mm 0.02 in0.5 mm
02:10 PM 32.4°F0.2°C 21.2°F-6.0°C 63% 5.5 mph SE8.9 kmh SE 10.5 mph16.9 kmh 29.90 in1012.5 mb 0.00 in0.0 mm 0.00 in0.0 mm 0.02 in0.5 mm
02:20 PM 32.7°F0.4°C 21.1°F-6.1°C 62% 6.9 mph SSE11.1 kmh SSE 10.1 mph16.3 kmh 29.90 in1012.5 mb 0.00 in0.0 mm 0.00 in0.0 mm 0.02 in0.5 mm
02:30 PM 32.4°F0.2°C 21.2°F-6.0°C 63% 0.6 mph ESE1.0 kmh ESE 2.5 mph4.0 kmh 29.90 in1012.5 mb 0.00 in0.0 mm 0.00 in0.0 mm 0.02 in0.5 mm
02:40 PM 31.8°F-0.1°C 21.0°F-6.1°C 64% 5.1 mph ENE8.2 kmh ENE 8.5 mph13.7 kmh 29.90 in1012.5 mb 0.00 in0.0 mm 0.00 in0.0 mm 0.02 in0.5 mm
02:50 PM 31.8°F-0.1°C 21.0°F-6.1°C 64% 6.4 mph E10.3 kmh E 9.6 mph15.4 kmh 29.90 in1012.5 mb 0.00 in0.0 mm 0.00 in0.0 mm 0.02 in0.5 mm
03:00 PM 32.2°F0.1°C 20.6°F-6.3°C 62% 7.9 mph ESE12.7 kmh ESE 10.3 mph16.6 kmh 29.90 in1012.5 mb 0.00 in0.0 mm 0.00 in0.0 mm 0.02 in0.5 mm
03:10 PM 32.5°F0.3°C 21.0°F-6.1°C 62% 3.9 mph ESE6.3 kmh ESE 9.4 mph15.1 kmh 29.90 in1012.5 mb 0.00 in0.0 mm 0.00 in0.0 mm 0.02 in0.5 mm
03:20 PM 32.2°F0.1°C 21.0°F-6.1°C 63% 6.3 mph ESE10.1 kmh ESE 12.1 mph19.5 kmh 29.89 in1012.2 mb 0.00 in0.0 mm 0.00 in0.0 mm 0.02 in0.5 mm
03:30 PM 31.8°F-0.1°C 20.6°F-6.3°C 63% 2.9 mph E4.7 kmh E 13.4 mph21.6 kmh 29.89 in1012.2 mb 0.00 in0.0 mm 0.00 in0.0 mm 0.02 in0.5 mm
03:40 PM 31.6°F-0.2°C 20.5°F-6.4°C 63% 6.5 mph ESE10.5 kmh ESE 13.4 mph21.6 kmh 29.90 in1012.5 mb 0.00 in0.0 mm 0.00 in0.0 mm 0.02 in0.5 mm
03:50 PM 31.6°F-0.2°C 20.5°F-6.4°C 63% 3.6 mph SE5.8 kmh SE 8.3 mph13.4 kmh 29.89 in1012.2 mb 0.00 in0.0 mm 0.00 in0.0 mm 0.02 in0.5 mm
04:00 PM 31.1°F-0.5°C 20.3°F-6.5°C 64% 2.0 mph SE3.2 kmh SE 7.6 mph12.2 kmh 29.90 in1012.5 mb 0.00 in0.0 mm 0.00 in0.0 mm 0.02 in0.5 mm
04:10 PM 31.1°F-0.5°C 20.3°F-6.5°C 64% 5.7 mph E9.2 kmh E 10.1 mph16.3 kmh 29.90 in1012.5 mb 0.00 in0.0 mm 0.00 in0.0 mm 0.02 in0.5 mm
04:20 PM 30.9°F-0.6°C 20.5°F-6.4°C 65% 4.7 mph ESE7.6 kmh ESE 10.1 mph16.3 kmh 29.90 in1012.5 mb 0.00 in0.0 mm 0.00 in0.0 mm 0.02 in0.5 mm
04:30 PM 31.3°F-0.4°C 20.5°F-6.4°C 64% 1.0 mph ESE1.6 kmh ESE 7.4 mph11.9 kmh 29.90 in1012.5 mb 0.00 in0.0 mm 0.00 in0.0 mm 0.02 in0.5 mm
04:40 PM 31.6°F-0.2°C 21.2°F-6.0°C 65% 1.7 mph E2.7 kmh E 3.8 mph6.1 kmh 29.90 in1012.5 mb 0.00 in0.0 mm 0.00 in0.0 mm 0.02 in0.5 mm
04:50 PM 31.3°F-0.4°C 20.9°F-6.2°C 65% Calm Calm -- 29.90 in1012.5 mb 0.00 in0.0 mm 0.00 in0.0 mm 0.02 in0.5 mm
05:00 PM 30.7°F-0.7°C 20.7°F-6.3°C 66% 0.8 mph ESE1.3 kmh ESE 3.8 mph6.1 kmh 29.90 in1012.5 mb 0.00 in0.0 mm 0.00 in0.0 mm 0.02 in0.5 mm
05:10 PM 30.6°F-0.8°C 20.9°F-6.2°C 67% Calm Calm -- 29.90 in1012.5 mb 0.00 in0.0 mm 0.00 in0.0 mm 0.02 in0.5 mm
05:20 PM 29.3°F-1.5°C 21.4°F-5.9°C 72% 2.4 mph S3.9 kmh S 6.0 mph9.7 kmh 29.90 in1012.5 mb 0.00 in0.0 mm 0.00 in0.0 mm 0.02 in0.5 mm
05:30 PM 28.2°F-2.1°C 21.6°F-5.8°C 76% 0.8 mph SSW1.3 kmh SSW 3.6 mph5.8 kmh 29.90 in1012.5 mb 0.00 in0.0 mm 0.00 in0.0 mm 0.02 in0.5 mm
05:40 PM 27.7°F-2.4°C 21.4°F-5.9°C 77% 0.3 mph SSE0.5 kmh SSE 1.6 mph2.6 kmh 29.90 in1012.5 mb 0.00 in0.0 mm 0.00 in0.0 mm 0.02 in0.5 mm
05:50 PM 28.0°F-2.2°C 22.1°F-5.5°C 78% 0.5 mph ESE0.8 kmh ESE 3.1 mph5.0 kmh 29.90 in1012.5 mb 0.00 in0.0 mm 0.00 in0.0 mm 0.02 in0.5 mm
06:00 PM 28.0°F-2.2°C 22.4°F-5.3°C 79% 2.9 mph SSE4.7 kmh SSE 4.9 mph7.9 kmh 29.89 in1012.2 mb 0.00 in0.0 mm 0.00 in0.0 mm 0.02 in0.5 mm
06:10 PM 27.7°F-2.4°C 22.3°F-5.4°C 80% 2.0 mph SSE3.2 kmh SSE 4.9 mph7.9 kmh 29.90 in1012.5 mb 0.00 in0.0 mm 0.00 in0.0 mm 0.02 in0.5 mm
06:20 PM 27.3°F-2.6°C 22.0°F-5.6°C 80% Calm Calm -- 29.90 in1012.5 mb 0.00 in0.0 mm 0.00 in0.0 mm 0.02 in0.5 mm
06:30 PM 27.0°F-2.8°C 21.9°F-5.6°C 81% Calm Calm -- 29.90 in1012.5 mb 0.00 in0.0 mm 0.00 in0.0 mm 0.02 in0.5 mm
06:40 PM 26.6°F-3.0°C 21.6°F-5.8°C 81% Calm Calm -- 29.90 in1012.5 mb 0.00 in0.0 mm 0.00 in0.0 mm 0.02 in0.5 mm
06:50 PM 27.0°F-2.8°C 21.9°F-5.6°C 81% Calm Calm -- 29.90 in1012.5 mb 0.00 in0.0 mm 0.00 in0.0 mm 0.02 in0.5 mm
07:00 PM 26.8°F-2.9°C 21.4°F-5.9°C 80% Calm Calm -- 29.90 in1012.5 mb 0.00 in0.0 mm 0.00 in0.0 mm 0.02 in0.5 mm
07:10 PM 26.2°F-3.2°C 20.9°F-6.2°C 80% Calm Calm -- 29.89 in1012.2 mb 0.00 in0.0 mm 0.00 in0.0 mm 0.02 in0.5 mm
07:20 PM 26.1°F-3.3°C 20.7°F-6.3°C 80% Calm Calm -- 29.90 in1012.5 mb 0.00 in0.0 mm 0.00 in0.0 mm 0.02 in0.5 mm
07:30 PM 25.7°F-3.5°C 20.4°F-6.4°C 80% Calm Calm -- 29.90 in1012.5 mb 0.00 in0.0 mm 0.00 in0.0 mm 0.02 in0.5 mm
07:40 PM 25.2°F-3.8°C 20.1°F-6.6°C 81% Calm Calm -- 29.90 in1012.5 mb 0.00 in0.0 mm 0.00 in0.0 mm 0.02 in0.5 mm
07:50 PM 24.8°F-4.0°C 19.8°F-6.8°C 81% Calm Calm -- 29.90 in1012.5 mb 0.00 in0.0 mm 0.00 in0.0 mm 0.02 in0.5 mm
08:00 PM 25.2°F-3.8°C 20.1°F-6.6°C 81% Calm Calm -- 29.90 in1012.5 mb 0.00 in0.0 mm 0.00 in0.0 mm 0.02 in0.5 mm
08:10 PM 24.6°F-4.1°C 19.6°F-6.9°C 81% Calm Calm -- 29.91 in1012.9 mb 0.00 in0.0 mm 0.00 in0.0 mm 0.02 in0.5 mm
08:20 PM 24.6°F-4.1°C 20.2°F-6.6°C 83% Calm Calm -- 29.91 in1012.9 mb 0.00 in0.0 mm 0.00 in0.0 mm 0.02 in0.5 mm
08:30 PM 25.0°F-3.9°C 20.5°F-6.4°C 83% Calm Calm -- 29.91 in1012.9 mb 0.00 in0.0 mm 0.00 in0.0 mm 0.02 in0.5 mm
08:40 PM 25.0°F-3.9°C 20.5°F-6.4°C 83% Calm Calm -- 29.91 in1012.9 mb 0.00 in0.0 mm 0.00 in0.0 mm 0.02 in0.5 mm
08:50 PM 24.6°F-4.1°C 20.2°F-6.6°C 83% Calm Calm -- 29.91 in1012.9 mb 0.00 in0.0 mm 0.00 in0.0 mm 0.02 in0.5 mm
09:00 PM 23.9°F-4.5°C 19.8°F-6.8°C 84% Calm Calm -- 29.91 in1012.9 mb 0.00 in0.0 mm 0.00 in0.0 mm 0.02 in0.5 mm
09:10 PM 23.5°F-4.7°C 19.7°F-6.8°C 85% Calm Calm -- 29.91 in1012.9 mb 0.00 in0.0 mm 0.00 in0.0 mm 0.02 in0.5 mm
09:20 PM 23.4°F-4.8°C 19.8°F-6.8°C 86% Calm Calm -- 29.91 in1012.9 mb 0.00 in0.0 mm 0.00 in0.0 mm 0.02 in0.5 mm
09:30 PM 24.1°F-4.4°C 20.8°F-6.2°C 87% Calm Calm -- 29.91 in1012.9 mb 0.00 in0.0 mm 0.00 in0.0 mm 0.02 in0.5 mm
09:40 PM 24.1°F-4.4°C 20.5°F-6.4°C 86% Calm Calm -- 29.91 in1012.9 mb 0.00 in0.0 mm 0.00 in0.0 mm 0.02 in0.5 mm
09:50 PM 24.8°F-4.0°C 21.5°F-5.8°C 87% Calm Calm -- 29.91 in1012.9 mb 0.00 in0.0 mm 0.00 in0.0 mm 0.02 in0.5 mm
10:00 PM 25.0°F-3.9°C 21.4°F-5.9°C 86% Calm Calm -- 29.91 in1012.9 mb 0.00 in0.0 mm 0.00 in0.0 mm 0.02 in0.5 mm
10:10 PM 24.4°F-4.2°C 20.6°F-6.3°C 85% Calm Calm -- 29.91 in1012.9 mb 0.00 in0.0 mm 0.00 in0.0 mm 0.02 in0.5 mm
10:20 PM 24.1°F-4.4°C 20.5°F-6.4°C 86% Calm Calm -- 29.91 in1012.9 mb 0.00 in0.0 mm 0.00 in0.0 mm 0.02 in0.5 mm
10:30 PM 24.1°F-4.4°C 21.0°F-6.1°C 88% Calm Calm -- 29.91 in1012.9 mb 0.00 in0.0 mm 0.00 in0.0 mm 0.02 in0.5 mm
10:40 PM 23.7°F-4.6°C 20.7°F-6.3°C 88% Calm Calm -- 29.91 in1012.9 mb 0.00 in0.0 mm 0.00 in0.0 mm 0.02 in0.5 mm
10:50 PM 23.9°F-4.5°C 21.1°F-6.1°C 89% Calm Calm -- 29.91 in1012.9 mb 0.00 in0.0 mm 0.00 in0.0 mm 0.02 in0.5 mm
11:00 PM 23.7°F-4.6°C 21.0°F-6.1°C 89% 0.4 mph ESE0.6 kmh ESE 1.8 mph2.9 kmh 29.91 in1012.9 mb 0.00 in0.0 mm 0.00 in0.0 mm 0.02 in0.5 mm
11:10 PM 23.5°F-4.7°C 20.5°F-6.4°C 88% Calm Calm -- 29.91 in1012.9 mb 0.00 in0.0 mm 0.00 in0.0 mm 0.02 in0.5 mm
11:20 PM 23.0°F-5.0°C 20.0°F-6.7°C 88% Calm Calm -- 29.91 in1012.9 mb 0.00 in0.0 mm 0.00 in0.0 mm 0.02 in0.5 mm
11:30 PM 22.8°F-5.1°C 19.8°F-6.8°C 88% Calm Calm -- 29.91 in1012.9 mb 0.00 in0.0 mm 0.00 in0.0 mm 0.02 in0.5 mm
11:40 PM 22.8°F-5.1°C 19.8°F-6.8°C 88% Calm Calm -- 29.90 in1012.5 mb 0.00 in0.0 mm 0.00 in0.0 mm 0.02 in0.5 mm
11:50 PM 22.8°F-5.1°C 19.8°F-6.8°C 88% Calm Calm -- 29.90 in1012.5 mb 0.00 in0.0 mm 0.00 in0.0 mm 0.02 in0.5 mm